createdAt,value
2022-10-11T00:01:55.864Z,1.40
2022-10-11T00:04:22.625Z,1.20
2022-10-11T00:06:49.440Z,1.17
2022-10-11T00:09:16.272Z,1.42
2022-10-11T00:11:43.402Z,1.20
2022-10-11T00:14:10.317Z,1.52
2022-10-11T00:16:40.904Z,1.48
2022-10-11T00:19:07.835Z,1.65
2022-10-11T00:21:34.708Z,1.55
2022-10-11T00:24:01.457Z,1.75
2022-10-11T00:26:28.194Z,1.25
2022-10-11T00:28:55.272Z,1.40
2022-10-11T00:31:22.416Z,1.38
2022-10-11T00:33:49.218Z,0.95
2022-10-11T00:36:17.411Z,1.25
2022-10-11T00:38:45.032Z,1.50
2022-10-11T00:41:13.202Z,1.42
2022-10-11T00:43:40.083Z,1.13
2022-10-11T00:46:18.981Z,1.23
2022-10-11T00:48:58.181Z,1.60
2022-10-11T00:51:51.682Z,0.93
2022-10-11T00:54:21.697Z,1.10
2022-10-11T00:56:53.245Z,1.30
2022-10-11T00:59:24.586Z,1.27
2022-10-11T01:01:52.130Z,1.38
2022-10-11T01:04:19.085Z,1.50
2022-10-11T01:06:46.304Z,1.05
2022-10-11T01:09:13.867Z,1.20
2022-10-11T01:11:42.755Z,1.50
2022-10-11T01:14:25.690Z,1.17
2022-10-11T01:16:58.445Z,1.35
2022-10-11T01:19:53.719Z,1.30
2022-10-11T01:22:20.470Z,0.93
2022-10-11T01:25:00.370Z,1.40
2022-10-11T01:27:53.504Z,1.42
2022-10-11T01:30:24.568Z,1.15
2022-10-11T01:35:38.264Z,1.35
2022-10-11T01:38:09.006Z,1.30
2022-10-11T01:40:43.030Z,1.30
2022-10-11T01:43:10.272Z,0.90
2022-10-11T01:45:37.394Z,0.98
2022-10-11T01:48:07.546Z,1.08
2022-10-11T01:50:52.205Z,1.43
2022-10-11T01:53:31.014Z,1.98
2022-10-11T01:56:11.294Z,1.60
2022-10-11T01:58:43.717Z,1.23
2022-10-11T02:01:42.717Z,0.75
2022-10-11T02:04:45.430Z,1.05
2022-10-11T02:07:23.705Z,0.80
2022-10-11T02:10:00.492Z,0.80
2022-10-11T02:12:40.245Z,0.88
2022-10-11T02:15:09.887Z,1.23
2022-10-11T02:17:40.964Z,1.63
2022-10-11T02:22:37.936Z,0.80
2022-10-11T02:25:09.189Z,0.85
2022-10-11T02:27:38.760Z,0.65
2022-10-11T02:30:07.669Z,1.23
2022-10-11T02:32:36.686Z,1.00
2022-10-11T02:35:04.260Z,1.30
2022-10-11T02:37:35.750Z,0.93
2022-10-11T02:40:25.315Z,1.15
2022-10-11T02:43:03.923Z,1.00
2022-10-11T02:45:33.169Z,1.23
2022-10-11T02:48:00.161Z,1.27
2022-10-11T02:50:27.298Z,1.02
2022-10-11T02:52:54.019Z,0.80
2022-10-11T02:55:20.989Z,1.17
2022-10-11T02:57:47.823Z,0.90
2022-10-11T03:00:14.898Z,1.02
2022-10-11T03:02:41.607Z,0.73
2022-10-11T03:05:09.286Z,0.90
2022-10-11T03:07:36.013Z,1.10
2022-10-11T03:10:03.140Z,1.10
2022-10-11T03:12:29.971Z,0.95
2022-10-11T03:14:56.739Z,0.77
2022-10-11T03:17:36.200Z,0.98
2022-10-11T03:20:04.791Z,1.00
2022-10-11T03:22:32.075Z,1.00
2022-10-11T03:25:03.669Z,0.70
2022-10-11T03:27:32.064Z,0.50
2022-10-11T03:29:58.920Z,0.90
2022-10-11T03:32:25.670Z,1.42
2022-10-11T03:34:53.206Z,0.93
2022-10-11T03:37:20.217Z,0.70
2022-10-11T03:39:46.997Z,1.60
2022-10-11T03:42:13.854Z,0.95
2022-10-11T03:44:42.112Z,1.42
2022-10-11T03:47:09.442Z,1.00
2022-10-11T03:49:41.229Z,0.70
2022-10-11T03:52:10.497Z,0.80
2022-10-11T03:54:37.252Z,0.80
2022-10-11T03:57:04.132Z,1.02
2022-10-11T03:59:31.058Z,1.10
2022-10-11T04:01:57.904Z,0.82
2022-10-11T04:04:24.815Z,1.08
2022-10-11T04:06:51.617Z,0.60
2022-10-11T04:09:18.325Z,1.13
2022-10-11T04:11:45.160Z,1.05
2022-10-11T04:14:11.903Z,1.20
2022-10-11T04:16:41.429Z,0.90
2022-10-11T04:19:08.275Z,0.90
2022-10-11T04:21:35.060Z,1.10
2022-10-11T04:24:01.858Z,0.68
2022-10-11T04:26:28.651Z,0.95
2022-10-11T04:28:55.534Z,0.93
2022-10-11T04:31:22.537Z,0.90
2022-10-11T04:33:49.488Z,0.90
2022-10-11T04:36:16.305Z,0.95
2022-10-11T04:38:43.171Z,1.17
2022-10-11T04:41:11.902Z,1.30
2022-10-11T04:43:38.782Z,0.70
2022-10-11T04:46:06.817Z,1.05
2022-10-11T04:48:34.052Z,1.27
2022-10-11T04:51:00.816Z,1.48
2022-10-11T04:53:27.811Z,0.73
2022-10-11T04:56:05.711Z,0.57
2022-10-11T04:58:34.110Z,0.93
2022-10-11T05:01:00.994Z,1.45
2022-10-11T05:03:28.345Z,0.70
2022-10-11T05:05:55.026Z,0.88
2022-10-11T05:08:23.315Z,0.82
2022-10-11T05:11:02.015Z,1.17
2022-10-11T05:13:29.166Z,1.00
2022-10-11T05:15:56.479Z,0.90
2022-10-11T05:18:23.278Z,0.95
2022-10-11T05:20:50.561Z,0.73
2022-10-11T05:23:17.278Z,0.68
2022-10-11T05:25:44.028Z,0.98
2022-10-11T05:28:10.829Z,0.73
2022-10-11T05:30:37.567Z,0.63
2022-10-11T05:33:04.702Z,1.15
2022-10-11T05:35:31.428Z,1.00
2022-10-11T05:37:58.144Z,0.82
2022-10-11T05:40:24.843Z,1.33
2022-10-11T05:42:51.620Z,1.10
2022-10-11T05:45:18.567Z,1.27
2022-10-11T05:47:45.404Z,1.27
2022-10-11T05:50:12.184Z,1.38
2022-10-11T05:52:38.936Z,1.90
2022-10-11T05:55:06.506Z,1.25
2022-10-11T05:57:33.231Z,1.42
2022-10-11T06:00:00.274Z,1.00
2022-10-11T06:02:27.040Z,0.88
2022-10-11T06:04:53.782Z,0.90
2022-10-11T06:07:20.566Z,0.70
2022-10-11T06:09:47.280Z,1.17
2022-10-11T06:12:14.099Z,0.70
2022-10-11T06:14:40.912Z,0.90
2022-10-11T06:17:07.604Z,1.20
2022-10-11T06:19:34.751Z,1.00
2022-10-11T06:22:01.518Z,0.88
2022-10-11T06:24:28.286Z,0.70
2022-10-11T06:26:55.678Z,1.13
2022-10-11T06:29:22.758Z,0.80
2022-10-11T06:31:49.469Z,0.68
2022-10-11T06:34:16.210Z,1.00
2022-10-11T06:36:42.988Z,0.80
2022-10-11T06:39:09.765Z,1.02
2022-10-11T06:41:37.370Z,0.60
2022-10-11T06:44:04.746Z,0.70
2022-10-11T06:46:35.138Z,0.90
2022-10-11T06:49:02.002Z,0.85
2022-10-11T06:51:30.197Z,1.13
2022-10-11T06:53:58.711Z,0.32
2022-10-11T06:56:27.038Z,0.68
2022-10-11T06:58:54.717Z,1.52
2022-10-11T07:01:23.798Z,0.77
2022-10-11T07:03:52.574Z,0.98
2022-10-11T07:06:22.100Z,0.65
2022-10-11T07:08:49.287Z,0.82
2022-10-11T07:11:21.709Z,0.77
2022-10-11T07:13:51.172Z,0.70
2022-10-11T07:16:19.777Z,0.70
2022-10-11T07:18:47.675Z,0.82
2022-10-11T07:21:15.962Z,0.80
2022-10-11T07:23:42.893Z,0.73
2022-10-11T07:26:11.780Z,0.68
2022-10-11T07:28:40.141Z,0.70
2022-10-11T07:31:09.568Z,0.60
2022-10-11T07:33:36.541Z,0.93
2022-10-11T07:36:04.642Z,0.80
2022-10-11T07:38:32.181Z,0.90
2022-10-11T07:40:59.248Z,0.93
2022-10-11T07:43:26.046Z,0.73
2022-10-11T07:45:57.057Z,0.80
2022-10-11T07:48:23.945Z,0.90
2022-10-11T07:50:50.761Z,0.90
2022-10-11T07:53:17.527Z,1.00
2022-10-11T07:55:44.251Z,0.80
2022-10-11T07:58:12.355Z,0.80
2022-10-11T08:00:42.323Z,0.65
2022-10-11T08:03:10.539Z,0.60
2022-10-11T08:05:39.081Z,0.63
2022-10-11T08:08:06.079Z,0.60
2022-10-11T08:10:39.863Z,0.77
2022-10-11T08:13:06.922Z,0.60
2022-10-11T08:15:33.610Z,0.60
2022-10-11T08:18:00.453Z,0.60
2022-10-11T08:20:27.336Z,0.75
2022-10-11T08:22:54.092Z,0.88
2022-10-11T08:25:20.882Z,0.90
2022-10-11T08:27:47.738Z,0.30
2022-10-11T08:30:14.562Z,0.70
2022-10-11T08:32:41.471Z,0.40
2022-10-11T08:35:08.460Z,0.40
2022-10-11T08:37:35.221Z,0.68
2022-10-11T08:40:03.453Z,0.60
2022-10-11T08:42:45.993Z,0.63
2022-10-11T08:45:29.430Z,0.55
2022-10-11T08:48:04.552Z,0.60
2022-10-11T08:50:31.565Z,0.52
2022-10-11T08:53:06.272Z,0.30
2022-10-11T08:55:49.304Z,0.90
2022-10-11T08:58:19.872Z,0.43
2022-10-11T09:00:48.910Z,0.50
2022-10-11T09:03:22.210Z,0.40
2022-10-11T09:05:53.781Z,0.65
2022-10-11T09:08:50.666Z,1.05
2022-10-11T09:11:39.179Z,0.95
2022-10-11T09:14:24.292Z,0.60
2022-10-11T09:17:33.879Z,0.90
2022-10-11T09:20:15.538Z,0.50
2022-10-11T09:23:04.362Z,0.30
2022-10-11T09:25:35.352Z,0.80
2022-10-11T09:30:38.448Z,1.00
2022-10-11T09:33:12.525Z,0.52
2022-10-11T09:35:43.222Z,0.70
2022-10-11T09:38:25.514Z,0.65
2022-10-11T09:40:55.286Z,0.40
2022-10-11T09:43:22.252Z,0.75
2022-10-11T09:45:49.762Z,0.63
2022-10-11T09:48:41.667Z,0.73
2022-10-11T09:51:15.136Z,0.93
2022-10-11T09:54:01.640Z,0.70
2022-10-11T09:56:31.184Z,0.60
2022-10-11T09:59:09.285Z,0.60
2022-10-11T10:01:36.373Z,0.47
2022-10-11T10:04:12.500Z,0.60
2022-10-11T10:06:40.366Z,0.50
2022-10-11T10:09:28.061Z,0.73
2022-10-11T10:11:56.310Z,0.77
2022-10-11T10:14:28.730Z,0.50
2022-10-11T10:17:19.038Z,0.30
2022-10-11T10:19:53.716Z,0.30
2022-10-11T10:22:22.539Z,0.30
2022-10-11T10:24:50.713Z,0.50
2022-10-11T10:27:21.716Z,0.38
2022-10-11T10:33:11.707Z,0.47
2022-10-11T10:35:43.310Z,0.73
2022-10-11T10:38:16.433Z,0.57
2022-10-11T10:40:45.736Z,0.52
2022-10-11T10:43:18.431Z,0.55
2022-10-11T10:46:04.097Z,0.60
2022-10-11T10:52:17.246Z,0.52
2022-10-11T10:54:56.334Z,1.08
2022-10-11T10:57:49.141Z,0.77
2022-10-11T11:00:19.151Z,0.80
2022-10-11T11:02:59.061Z,0.55
2022-10-11T11:05:44.563Z,0.50
2022-10-11T11:08:29.411Z,1.10
2022-10-11T11:11:03.256Z,0.80
2022-10-11T11:13:50.114Z,0.60
2022-10-11T11:16:31.912Z,0.60
2022-10-11T11:19:08.231Z,0.70
2022-10-11T11:21:48.819Z,0.60
2022-10-11T11:24:24.593Z,0.73
2022-10-11T11:27:04.418Z,0.70
2022-10-11T11:29:56.353Z,0.60
2022-10-11T11:32:28.933Z,0.68
2022-10-11T11:35:11.192Z,0.60
2022-10-11T11:37:41.674Z,0.50
2022-10-11T11:40:25.652Z,0.68
2022-10-11T11:42:55.892Z,0.68
2022-10-11T11:45:55.041Z,0.65
2022-10-11T11:48:26.484Z,0.70
2022-10-11T11:51:04.340Z,0.52
2022-10-11T11:54:06.154Z,0.57
2022-10-11T11:56:45.125Z,0.60
2022-10-11T11:59:20.677Z,1.00
2022-10-11T12:01:50.602Z,0.70
2022-10-11T12:04:29.041Z,0.82
2022-10-11T12:07:16.829Z,0.43
2022-10-11T12:09:50.739Z,0.63
2022-10-11T12:12:34.059Z,0.60
2022-10-11T12:15:10.112Z,0.57
2022-10-11T12:18:15.557Z,0.93
2022-10-11T12:20:43.569Z,0.40
2022-10-11T12:23:29.564Z,0.60
2022-10-11T12:26:29.897Z,0.40
2022-10-11T12:29:17.191Z,0.50
2022-10-11T12:31:50.032Z,0.50
2022-10-11T12:37:18.147Z,0.88
2022-10-11T12:39:56.018Z,0.55
2022-10-11T12:42:31.020Z,0.60
2022-10-11T12:45:13.269Z,0.63
2022-10-11T12:48:01.528Z,0.98
2022-10-11T12:50:34.749Z,0.50
2022-10-11T12:53:10.262Z,0.90
2022-10-11T12:55:57.286Z,0.60
2022-10-11T12:58:25.244Z,0.77
2022-10-11T13:00:51.990Z,0.77
2022-10-11T13:03:33.468Z,0.60
2022-10-11T13:06:01.838Z,0.50
2022-10-11T13:08:35.247Z,0.63
2022-10-11T13:11:05.165Z,0.93
2022-10-11T13:13:35.222Z,0.73
2022-10-11T13:16:13.096Z,0.40
2022-10-11T13:18:54.346Z,0.88
2022-10-11T13:21:36.359Z,0.55
2022-10-11T13:24:10.759Z,0.90
2022-10-11T13:26:37.809Z,0.70
2022-10-11T13:29:15.271Z,0.77
2022-10-11T13:31:42.421Z,0.52
2022-10-11T13:34:11.257Z,0.57
2022-10-11T13:36:38.127Z,0.60
2022-10-11T13:39:05.109Z,0.73
2022-10-11T13:41:32.570Z,1.05
2022-10-11T13:43:59.955Z,0.40
2022-10-11T13:46:28.410Z,0.65
2022-10-11T13:49:06.884Z,0.70
2022-10-11T13:51:37.737Z,0.30
2022-10-11T13:54:05.700Z,0.60
2022-10-11T13:56:35.827Z,0.60
2022-10-11T13:59:02.844Z,0.60
2022-10-11T14:01:41.395Z,0.40
2022-10-11T14:04:11.245Z,0.30
2022-10-11T14:06:44.968Z,0.90
2022-10-11T14:09:43.150Z,0.60
2022-10-11T14:12:44.445Z,0.50
2022-10-11T14:17:55.440Z,0.80
2022-10-11T14:20:34.804Z,0.50
2022-10-11T14:23:01.648Z,0.82
2022-10-11T14:25:28.393Z,1.00
2022-10-11T14:27:55.436Z,0.70
2022-10-11T14:30:27.412Z,0.93
2022-10-11T14:35:30.164Z,0.73
2022-10-11T14:37:56.990Z,0.70
2022-10-11T14:40:29.939Z,0.75
2022-10-11T14:42:57.033Z,1.17
2022-10-11T14:45:23.951Z,0.77
2022-10-11T14:47:51.061Z,0.90
2022-10-11T14:50:33.127Z,0.63
2022-10-11T14:53:00.117Z,0.73
2022-10-11T14:55:27.041Z,0.70
2022-10-11T14:57:53.820Z,0.93
2022-10-11T15:00:23.375Z,0.88
2022-10-11T15:02:52.719Z,1.20
2022-10-11T15:05:20.777Z,0.98
2022-10-11T15:07:47.750Z,1.15
2022-10-11T15:10:17.581Z,1.10
2022-10-11T15:12:44.644Z,1.15
2022-10-11T15:15:16.768Z,1.00
2022-10-11T15:17:43.701Z,1.00
2022-10-11T15:20:27.421Z,1.23
2022-10-11T15:22:55.430Z,1.45
2022-10-11T15:25:23.392Z,1.52
2022-10-11T15:27:51.133Z,1.40
2022-10-11T15:30:23.603Z,1.40
2022-10-11T15:32:51.891Z,1.75
2022-10-11T15:35:19.825Z,1.30
2022-10-11T15:37:47.218Z,1.25
2022-10-11T15:40:19.958Z,1.30
2022-10-11T15:42:47.434Z,1.40
2022-10-11T15:45:14.579Z,1.02
2022-10-11T15:47:41.474Z,1.25
2022-10-11T15:50:33.731Z,1.50
2022-10-11T15:53:02.863Z,0.80
2022-10-11T15:55:30.362Z,0.95
2022-10-11T15:57:57.396Z,1.20
2022-10-11T16:00:25.108Z,1.05
2022-10-11T16:02:52.767Z,0.85
2022-10-11T16:05:26.979Z,0.77
2022-10-11T16:07:54.313Z,0.73
2022-10-11T16:10:21.744Z,0.75
2022-10-11T16:12:48.827Z,1.15
2022-10-11T16:15:15.944Z,0.70
2022-10-11T16:17:42.741Z,0.90
2022-10-11T16:20:09.812Z,0.88
2022-10-11T16:22:36.782Z,0.90
2022-10-11T16:25:04.523Z,0.70
2022-10-11T16:27:31.486Z,0.60
2022-10-11T16:29:58.613Z,1.20
2022-10-11T16:32:25.535Z,0.80
2022-10-11T16:34:52.338Z,0.90
2022-10-11T16:37:19.292Z,0.77
2022-10-11T16:39:46.670Z,1.20
2022-10-11T16:42:13.450Z,0.70
2022-10-11T16:44:40.270Z,0.75
2022-10-11T16:47:07.340Z,0.93
2022-10-11T16:49:34.700Z,0.90
2022-10-11T16:52:03.890Z,0.93
2022-10-11T16:54:31.638Z,1.25
2022-10-11T16:56:59.028Z,0.70
2022-10-11T16:59:27.364Z,0.63
2022-10-11T17:01:54.373Z,0.93
2022-10-11T17:04:21.739Z,1.08
2022-10-11T17:06:48.614Z,0.80
2022-10-11T17:09:16.028Z,1.13
2022-10-11T17:11:43.635Z,1.38
2022-10-11T17:14:12.321Z,1.25
2022-10-11T17:16:39.438Z,1.10
2022-10-11T17:19:12.973Z,0.90
2022-10-11T17:21:40.022Z,0.98
2022-10-11T17:24:07.249Z,0.93
2022-10-11T17:26:34.738Z,1.50
2022-10-11T17:29:02.240Z,1.67
2022-10-11T17:31:30.105Z,1.27
2022-10-11T17:34:00.682Z,1.67
2022-10-11T17:38:58.090Z,1.52
2022-10-11T17:41:29.462Z,1.08
2022-10-11T17:43:59.308Z,1.00
2022-10-11T17:46:28.120Z,1.05
2022-10-11T17:48:55.697Z,1.00
2022-10-11T17:51:23.012Z,0.85
2022-10-11T17:53:51.266Z,0.80
2022-10-11T17:56:25.421Z,1.70
2022-10-11T17:58:56.320Z,1.58
2022-10-11T18:01:26.339Z,0.95
2022-10-11T18:03:55.324Z,1.43
2022-10-11T18:06:22.530Z,1.77
2022-10-11T18:08:49.475Z,0.80
2022-10-11T18:11:18.538Z,1.25
2022-10-11T18:13:48.667Z,1.05
2022-10-11T18:16:17.129Z,1.40
2022-10-11T18:18:44.471Z,1.27
2022-10-11T18:21:11.780Z,1.05
2022-10-11T18:23:38.656Z,0.98
2022-10-11T18:26:13.420Z,1.13
2022-10-11T18:28:41.123Z,1.67
2022-10-11T18:34:15.920Z,1.65
2022-10-11T18:36:42.939Z,1.40
2022-10-11T18:39:13.464Z,1.17
2022-10-11T18:41:44.249Z,1.20
2022-10-11T18:44:14.131Z,1.35
2022-10-11T18:46:41.535Z,1.38
2022-10-11T18:49:08.704Z,1.50
2022-10-11T18:51:40.472Z,1.30
2022-10-11T18:54:08.476Z,1.63
2022-10-11T18:56:37.062Z,1.13
2022-10-11T18:59:04.692Z,1.38
2022-10-11T19:01:38.336Z,1.58
2022-10-11T19:04:06.955Z,1.67
2022-10-11T19:06:37.305Z,1.17
2022-10-11T19:09:12.177Z,1.33
2022-10-11T19:11:39.257Z,1.35
2022-10-11T19:14:11.694Z,1.15
2022-10-11T19:16:49.527Z,1.13
2022-10-11T19:19:18.699Z,1.70
2022-10-11T19:21:48.109Z,1.23
2022-10-11T19:24:20.428Z,1.70
2022-10-11T19:26:47.542Z,1.27
2022-10-11T19:29:21.534Z,1.70
2022-10-11T19:31:59.797Z,1.17
2022-10-11T19:34:27.829Z,0.90
2022-10-11T19:36:56.523Z,1.38
2022-10-11T19:39:24.594Z,1.67
2022-10-11T19:41:51.515Z,1.55
2022-10-11T19:44:18.548Z,1.40
2022-10-11T19:46:51.659Z,1.67
2022-10-11T19:49:21.597Z,1.45
2022-10-11T19:51:48.498Z,1.67
2022-10-11T19:54:15.668Z,1.45
2022-10-11T19:56:42.931Z,1.80
2022-10-11T19:59:10.537Z,1.52
2022-10-11T20:01:37.588Z,1.40
2022-10-11T20:04:22.686Z,1.52
2022-10-11T20:06:56.965Z,1.58
2022-10-11T20:09:29.646Z,1.40
2022-10-11T20:11:57.323Z,1.80
2022-10-11T20:14:24.470Z,1.50
2022-10-11T20:16:51.432Z,1.55
2022-10-11T20:19:18.745Z,1.77
2022-10-11T20:21:45.611Z,1.52
2022-10-11T20:24:12.691Z,1.58
2022-10-11T20:26:39.603Z,1.60
2022-10-11T20:29:06.554Z,1.20
2022-10-11T20:31:34.610Z,2.50
2022-10-11T20:34:04.266Z,1.38
2022-10-11T20:36:31.502Z,1.95
2022-10-11T20:38:59.270Z,2.55
2022-10-11T20:41:34.194Z,1.90
2022-10-11T20:44:01.840Z,2.10
2022-10-11T20:46:31.369Z,1.35
2022-10-11T20:49:03.540Z,1.92
2022-10-11T20:51:31.776Z,1.77
2022-10-11T20:53:59.340Z,1.60
2022-10-11T20:56:26.773Z,1.92
2022-10-11T20:58:54.920Z,2.15
2022-10-11T21:01:24.271Z,2.13
2022-10-11T21:03:51.098Z,1.83
2022-10-11T21:06:19.249Z,2.00
2022-10-11T21:08:46.095Z,1.80
2022-10-11T21:11:12.897Z,1.83
2022-10-11T21:13:39.596Z,2.35
2022-10-11T21:16:14.641Z,2.10
2022-10-11T21:18:41.823Z,2.35
2022-10-11T21:21:10.921Z,1.63
2022-10-11T21:23:38.227Z,2.03
2022-10-11T21:26:07.252Z,2.15
2022-10-11T21:28:34.422Z,2.00
2022-10-11T21:31:12.563Z,2.72
2022-10-11T21:33:40.862Z,1.95
2022-10-11T21:36:21.545Z,2.00
2022-10-11T21:38:49.909Z,1.98
2022-10-11T21:41:25.556Z,2.33
2022-10-11T21:43:53.148Z,2.15
2022-10-11T21:46:19.810Z,2.85
2022-10-11T21:48:47.292Z,2.65
2022-10-11T21:51:16.252Z,3.15
2022-10-11T21:53:42.998Z,2.70
2022-10-11T21:56:09.801Z,2.80
2022-10-11T21:58:36.923Z,3.05
2022-10-11T22:01:04.730Z,2.63
2022-10-11T22:03:32.237Z,2.67
2022-10-11T22:06:02.829Z,3.80
2022-10-11T22:08:30.586Z,2.38
2022-10-11T22:11:00.315Z,3.35
2022-10-11T22:13:29.659Z,2.50
2022-10-11T22:15:57.176Z,3.00
2022-10-11T22:18:25.228Z,2.88
2022-10-11T22:20:52.482Z,2.83
2022-10-11T22:23:19.315Z,2.75
2022-10-11T22:25:46.416Z,2.88
2022-10-11T22:28:13.425Z,2.70
2022-10-11T22:30:40.337Z,3.15
2022-10-11T22:33:07.143Z,3.00
2022-10-11T22:35:37.547Z,2.88
2022-10-11T22:38:06.196Z,2.75
2022-10-11T22:40:33.118Z,2.28
2022-10-11T22:42:59.844Z,2.95
2022-10-11T22:45:26.596Z,2.78
2022-10-11T22:47:53.316Z,3.08
2022-10-11T22:50:20.045Z,2.90
2022-10-11T22:52:46.775Z,2.72
2022-10-11T22:55:18.973Z,2.30
2022-10-11T22:57:46.792Z,2.75
2022-10-11T23:00:13.852Z,2.88
2022-10-11T23:02:42.296Z,3.05
2022-10-11T23:05:09.036Z,3.13
2022-10-11T23:07:36.095Z,2.85
2022-10-11T23:10:03.862Z,3.10
2022-10-11T23:12:30.782Z,2.40
2022-10-11T23:14:57.987Z,2.88
2022-10-11T23:17:24.900Z,3.60
2022-10-11T23:19:52.760Z,2.83
2022-10-11T23:22:19.545Z,3.30
2022-10-11T23:24:46.291Z,3.53
2022-10-11T23:27:13.074Z,2.47
2022-10-11T23:29:41.050Z,2.50
2022-10-11T23:32:08.856Z,2.75
2022-10-11T23:34:35.892Z,2.58
2022-10-11T23:37:03.093Z,2.30
2022-10-11T23:39:29.898Z,2.22
2022-10-11T23:41:57.192Z,2.17
2022-10-11T23:44:24.004Z,2.40
2022-10-11T23:46:50.813Z,2.38
2022-10-11T23:49:17.505Z,2.58
2022-10-11T23:51:44.289Z,2.55
2022-10-11T23:54:11.069Z,2.80
2022-10-11T23:56:38.157Z,2.42
2022-10-11T23:59:04.873Z,2.47
